Time;durP1;ratioP1;P1;durP2;ratioP2;P2;SDS_P1;SDS_P2;PMS_P1;PMS_P2;Temp;Humidity;BMP_temperature;BMP_pressure;BME280_temperature;BME280_humidity;BME280_pressure;Samples;Min_cycle;Max_cycle;Signal;HPM_P1;HPM_P2
2023/01/14 00:00:28;;;;;;;6.50;2.50;;;;;;;4.73;100.00;100235.59;5071503;28;20051;-72
2023/01/14 00:02:54;;;;;;;6.22;2.50;;;;;;;4.71;100.00;100248.63;5071223;28;20102;-71
2023/01/14 00:05:20;;;;;;;5.80;2.60;;;;;;;4.61;100.00;100242.03;5071997;28;20032;-71
2023/01/14 00:07:47;;;;;;;5.45;3.08;;;;;;;4.61;100.00;100249.75;5073177;28;20032;-72
2023/01/14 00:10:22;;;;;;;4.43;1.85;;;;;;;4.45;100.00;100225.19;5074436;28;20020;-70
2023/01/14 00:13:00;;;;;;;4.57;2.65;;;;;;;4.46;100.00;100249.41;5075222;28;20040;-72
2023/01/14 00:16:14;;;;;;;7.43;2.78;;;;;;;4.41;100.00;100245.09;5074576;28;20101;-71
2023/01/14 00:18:48;;;;;;;5.20;2.65;;;;;;;4.36;100.00;100254.16;5074546;28;20047;-72
2023/01/14 00:21:36;;;;;;;6.93;3.97;;;;;;;4.31;100.00;100251.09;5064896;28;20040;-71
2023/01/14 00:24:02;;;;;;;4.45;2.45;;;;;;;4.23;100.00;100255.38;5075311;28;20028;-72
2023/01/14 00:26:27;;;;;;;4.97;3.30;;;;;;;4.18;100.00;100259.56;5075037;28;20025;-72
2023/01/14 00:28:53;;;;;;;3.03;2.53;;;;;;;4.13;100.00;100262.94;5093710;28;20477;-72
2023/01/14 00:31:23;;;;;;;4.85;3.25;;;;;;;4.09;100.00;100265.09;5094805;28;20024;-72
2023/01/14 00:33:49;;;;;;;6.53;3.10;;;;;;;4.00;100.00;100254.44;5075954;28;20539;-73
2023/01/14 00:36:17;;;;;;;5.30;3.13;;;;;;;4.06;100.00;100260.34;5075618;28;20103;-71
2023/01/14 00:38:43;;;;;;;6.20;3.22;;;;;;;3.89;100.00;100244.69;5076584;28;20027;-71
2023/01/14 00:41:17;;;;;;;5.03;2.78;;;;;;;3.98;100.00;100262.56;5076342;28;20035;-71
2023/01/14 00:43:44;;;;;;;3.20;2.30;;;;;;;3.99;100.00;100267.00;5076235;28;20024;-71
2023/01/14 00:46:14;;;;;;;5.70;2.80;;;;;;;3.99;100.00;100266.19;5094264;28;20119;-70
2023/01/14 00:48:40;;;;;;;6.47;3.00;;;;;;;3.98;100.00;100278.75;5060401;28;20055;-71
2023/01/14 00:51:06;;;;;;;8.73;3.40;;;;;;;3.93;100.00;100271.59;5093523;28;20110;-71
2023/01/14 00:53:32;;;;;;;4.38;2.58;;;;;;;3.90;100.00;100283.81;5076021;28;20028;-72
2023/01/14 00:55:58;;;;;;;5.43;2.83;;;;;;;3.81;100.00;100274.38;5076297;28;20043;-71
2023/01/14 00:58:24;;;;;;;5.30;2.92;;;;;;;3.83;100.00;100291.66;5076130;28;20035;-70
2023/01/14 01:00:51;;;;;;;4.57;2.50;;;;;;;3.75;100.00;100299.56;5075858;28;20032;-73
2023/01/14 01:03:18;;;;;;;2.58;2.30;;;;;;;3.74;100.00;100300.78;5077267;28;20020;-71
2023/01/14 01:05:44;;;;;;;3.60;2.38;;;;;;;3.68;100.00;100304.59;5094822;28;20027;-72
2023/01/14 01:08:13;;;;;;;3.42;2.58;;;;;;;3.66;100.00;100305.06;5094118;28;20028;-70
2023/01/14 01:10:39;;;;;;;7.80;3.00;;;;;;;3.58;100.00;100309.31;5075847;28;20450;-71
2023/01/14 01:13:04;;;;;;;4.15;2.53;;;;;;;3.61;100.00;100317.72;5075709;28;20046;-71
2023/01/14 01:15:34;;;;;;;4.57;2.90;;;;;;;3.60;100.00;100318.94;5093842;28;20039;-71
2023/01/14 01:17:59;;;;;;;8.25;3.00;;;;;;;3.56;100.00;100312.59;5075741;28;20427;-71
2023/01/14 01:20:25;;;;;;;3.05;2.10;;;;;;;3.56;100.00;100314.63;5058611;28;20472;-70
2023/01/14 01:22:50;;;;;;;4.50;2.35;;;;;;;3.53;100.00;100318.31;5076933;28;20036;-71
2023/01/14 01:25:15;;;;;;;5.63;2.63;;;;;;;3.49;100.00;100311.97;5075845;28;20408;-71
2023/01/14 01:27:41;;;;;;;4.75;2.22;;;;;;;3.52;100.00;100313.94;5093557;28;20048;-72
2023/01/14 01:30:08;;;;;;;5.75;2.78;;;;;;;3.50;100.00;100316.41;5093755;28;20036;-71
2023/01/14 01:32:33;;;;;;;14.98;3.13;;;;;;;3.45;100.00;100314.09;5093717;28;20023;-70
2023/01/14 01:34:59;;;;;;;5.45;2.10;;;;;;;3.47;100.00;100315.28;5058807;28;20381;-72
2023/01/14 01:37:26;;;;;;;5.38;2.35;;;;;;;3.46;100.00;100324.97;5094326;28;20480;-70
2023/01/14 01:39:51;;;;;;;4.03;2.17;;;;;;;3.47;100.00;100323.75;5095456;28;20034;-70
2023/01/14 01:42:16;;;;;;;4.65;2.60;;;;;;;3.46;100.00;100321.34;5095469;28;20024;-71
2023/01/14 01:44:42;;;;;;;5.50;2.30;;;;;;;3.44;100.00;100321.78;5095741;28;20473;-70
2023/01/14 01:47:08;;;;;;;3.17;2.42;;;;;;;3.43;100.00;100325.03;5095863;28;20040;-71
2023/01/14 01:49:34;;;;;;;4.88;2.50;;;;;;;3.42;100.00;100321.44;5095541;28;20446;-72
2023/01/14 01:52:05;;;;;;;3.00;2.08;;;;;;;3.40;100.00;100332.38;5077402;28;20079;-70
2023/01/14 01:54:35;;;;;;;8.63;2.15;;;;;;;3.37;100.00;100333.28;5094945;28;20455;-70
2023/01/14 01:57:01;;;;;;;6.40;2.08;;;;;;;3.34;100.00;100333.34;5094506;28;20038;-72
2023/01/14 01:59:31;;;;;;;5.80;3.13;;;;;;;3.33;100.00;100335.38;5058165;28;20115;-71
2023/01/14 02:01:57;;;;;;;8.90;2.75;;;;;;;3.27;100.00;100331.53;5074866;28;20135;-71
2023/01/14 02:04:22;;;;;;;4.40;2.00;;;;;;;3.26;100.00;100343.25;5093049;28;20039;-70
2023/01/14 02:06:48;;;;;;;4.22;2.35;;;;;;;3.23;100.00;100345.72;5092929;28;20085;-71
2023/01/14 02:09:14;;;;;;;3.45;2.83;;;;;;;3.18;100.00;100326.47;5074951;28;20034;-71
2023/01/14 02:11:57;;;;;;;3.80;2.45;;;;;;;3.20;100.00;100340.16;5092992;28;20026;-71
2023/01/14 02:14:44;;;;;;;4.18;2.40;;;;;;;3.17;100.00;100335.41;5094766;28;20049;-70
2023/01/14 02:18:02;;;;;;;4.80;2.85;;;;;;;3.10;100.00;100344.84;5094636;28;20111;-71
2023/01/14 02:20:38;;;;;;;6.97;3.38;;;;;;;3.06;100.00;100343.34;5027796;28;20043;-71
2023/01/14 02:23:25;;;;;;;6.70;3.28;;;;;;;3.02;100.00;100348.28;5057851;28;20548;-70
2023/01/14 02:26:18;;;;;;;5.43;2.72;;;;;;;2.99;100.00;100351.97;5092683;28;20039;-70
2023/01/14 02:28:55;;;;;;;4.45;2.47;;;;;;;2.96;100.00;100350.03;5074180;28;20500;-72
2023/01/14 02:31:34;;;;;;;6.43;2.75;;;;;;;2.92;100.00;100361.41;5092683;28;20028;-71
2023/01/14 02:34:11;;;;;;;3.30;2.58;;;;;;;2.88;100.00;100357.09;5059348;28;20035;-70
2023/01/14 02:36:40;;;;;;;3.70;2.10;;;;;;;2.88;100.00;100363.53;5094453;28;20426;-69
2023/01/14 02:39:22;;;;;;;5.22;2.38;;;;;;;2.87;100.00;100355.50;5094475;28;20455;-70
2023/01/14 02:44:46;;;;;;;4.40;2.45;;;;;;;2.81;100.00;100357.25;5078972;28;20487;-71
2023/01/14 02:47:19;;;;;;;5.65;2.47;;;;;;;2.81;100.00;100368.53;5076605;28;20112;-71
2023/01/14 02:50:06;;;;;;;3.67;2.25;;;;;;;2.80;100.00;100370.56;5093988;28;20392;-69
2023/01/14 02:52:32;;;;;;;3.53;2.15;;;;;;;2.74;100.00;100361.03;5075306;28;20461;-70
2023/01/14 02:55:00;;;;;;;5.45;2.53;;;;;;;2.77;100.00;100374.28;5093293;28;20063;-72
2023/01/14 02:57:46;;;;;;;5.68;2.60;;;;;;;2.76;100.00;100372.69;5073964;28;20024;-70
2023/01/14 03:00:15;;;;;;;2.42;1.92;;;;;;;2.73;100.00;100377.19;5073856;28;20028;-71
2023/01/14 03:03:08;;;;;;;2.85;2.45;;;;;;;2.73;100.00;100384.84;5092075;28;20028;-71
2023/01/14 03:05:42;;;;;;;4.30;1.92;;;;;;;2.71;100.00;100385.28;5073635;28;20036;-71
2023/01/14 03:08:13;;;;;;;3.60;1.92;;;;;;;2.71;100.00;100387.28;5071772;28;20028;-70
2023/01/14 03:10:48;;;;;;;5.13;1.90;;;;;;;2.74;100.00;100392.06;5053821;28;20024;-72
2023/01/14 03:13:40;;;;;;;4.05;2.00;;;;;;;2.74;100.00;100390.03;5071663;28;20544;-72
2023/01/14 03:16:11;;;;;;;3.75;2.08;;;;;;;2.74;100.00;100380.75;5055302;28;20031;-74
2023/01/14 03:19:08;;;;;;;2.70;1.57;;;;;;;2.73;100.00;100394.09;5054024;28;20032;-73
2023/01/14 03:21:36;;;;;;;2.83;1.70;;;;;;;2.74;100.00;100395.66;5047555;28;20075;-70
2023/01/14 03:24:06;;;;;;;2.45;1.75;;;;;;;2.77;100.00;100405.31;5071767;28;20052;-72
2023/01/14 03:26:33;;;;;;;4.93;1.58;;;;;;;2.78;100.00;100404.06;5053501;28;20029;-71
2023/01/14 03:29:01;;;;;;;3.85;2.08;;;;;;;2.84;100.00;100413.59;5033501;28;20047;-72
2023/01/14 03:31:28;;;;;;;3.40;2.80;;;;;;;2.92;100.00;100412.22;5050161;28;20025;-72
2023/01/14 03:34:01;;;;;;;4.25;1.60;;;;;;;3.06;100.00;100413.91;5052052;28;20116;-71
2023/01/14 03:36:28;;;;;;;4.00;2.00;;;;;;;3.22;100.00;100422.41;5050199;28;20037;-71
2023/01/14 03:39:07;;;;;;;6.38;2.28;;;;;;;3.37;100.00;100423.66;5051410;28;20057;-72
2023/01/14 03:44:32;;;;;;;3.38;2.05;;;;;;;3.47;100.00;100418.97;5049915;28;20449;-71
2023/01/14 03:46:57;;;;;;;4.28;2.33;;;;;;;3.43;100.00;100419.03;5051478;28;20068;-71
2023/01/14 03:49:23;;;;;;;3.42;2.80;;;;;;;3.40;100.00;100419.16;5051940;28;20052;-72
2023/01/14 03:51:54;;;;;;;6.03;1.75;;;;;;;3.48;100.00;100420.53;5033345;28;20454;-72
2023/01/14 03:54:22;;;;;;;;;;;;;;;3.54;100.00;100418.78;5050549;28;20035;-71
2023/01/14 03:57:06;;;;;;;3.10;2.15;;;;;;;3.69;100.00;100427.69;5050174;28;19996;-72
2023/01/14 03:59:56;;;;;;;3.47;1.75;;;;;;;3.79;100.00;100423.81;5051344;28;20035;-72
2023/01/14 04:02:22;;;;;;;4.03;1.85;;;;;;;3.88;100.00;100427.63;5051239;28;20146;-72
2023/01/14 04:04:48;;;;;;;3.28;1.73;;;;;;;3.88;100.00;100419.13;5049769;28;20106;-72
2023/01/14 04:07:14;;;;;;;3.08;2.00;;;;;;;4.01;100.00;100436.97;5051309;28;20485;-70
2023/01/14 04:09:39;;;;;;;4.10;2.35;;;;;;;4.07;100.00;100443.66;5049767;28;20029;-71
2023/01/14 04:12:05;;;;;;;3.88;1.75;;;;;;;4.18;100.00;100434.88;5050955;28;20025;-71
2023/01/14 04:17:14;;;;;;;3.90;2.03;;;;;;;4.40;100.00;100433.06;5050972;28;20051;-73
2023/01/14 04:19:39;;;;;;;3.00;1.67;;;;;;;4.41;100.00;100434.63;5050045;28;20458;-71
2023/01/14 04:22:05;;;;;;;5.25;2.10;;;;;;;4.35;100.00;100427.16;5051079;28;20029;-73
2023/01/14 04:24:30;;;;;;;3.60;1.60;;;;;;;4.55;100.00;100439.09;5051263;28;20108;-72
2023/01/14 04:26:56;;;;;;;4.30;2.50;;;;;;;4.63;100.00;100440.47;5053210;28;20213;-70
2023/01/14 04:29:22;;;;;;;6.18;2.45;;;;;;;4.66;100.00;100438.81;5072972;28;20017;-70
2023/01/14 04:31:47;;;;;;;4.82;1.70;;;;;;;4.67;100.00;100446.81;5055419;28;20017;-71
2023/01/14 04:34:13;;;;;;;5.47;1.90;;;;;;;4.65;100.00;100451.34;5073149;28;20055;-70
2023/01/14 04:36:40;;;;;;;3.70;1.80;;;;;;;4.46;100.00;100445.41;5055090;28;20025;-71
2023/01/14 04:39:05;;;;;;;5.80;2.45;;;;;;;4.31;100.00;100446.25;5072122;28;20024;-70
2023/01/14 04:44:14;;;;;;;4.97;2.50;;;;;;;4.10;100.00;100456.13;5055736;28;20385;-71
2023/01/14 04:46:40;;;;;;;2.47;1.50;;;;;;;4.06;100.00;100456.22;5052824;28;20235;-72
2023/01/14 04:49:06;;;;;;;4.50;1.55;;;;;;;4.00;100.00;100452.34;5070724;28;20032;-71
2023/01/14 04:51:31;;;;;;;3.70;1.80;;;;;;;3.92;100.00;100450.91;5036201;28;20031;-71
2023/01/14 04:53:56;;;;;;;4.68;2.22;;;;;;;3.90;100.00;100459.06;5070570;28;20086;-71
2023/01/14 04:56:22;;;;;;;1.63;1.52;;;;;;;3.87;100.00;100465.59;5072539;28;20104;-71
2023/01/14 04:58:48;;;;;;;5.65;2.00;;;;;;;3.83;100.00;100469.72;5076384;28;20389;-71
2023/01/14 05:01:13;;;;;;;2.20;1.73;;;;;;;3.82;100.00;100470.97;5075671;28;20032;-71
2023/01/14 05:03:39;;;;;;;2.75;1.95;;;;;;;3.78;100.00;100471.03;5076165;28;20032;-70
2023/01/14 05:06:07;;;;;;;3.67;1.98;;;;;;;3.72;100.00;100472.03;5041507;28;20028;-72
2023/01/14 05:08:34;;;;;;;2.05;1.30;;;;;;;3.72;100.00;100477.69;5076092;28;20035;-71
2023/01/14 05:11:00;;;;;;;6.80;2.70;;;;;;;3.60;100.00;100470.69;5076309;28;20023;-71
2023/01/14 05:13:27;;;;;;;3.90;1.90;;;;;;;3.60;100.00;100474.31;5058080;28;20027;-71
2023/01/14 05:16:00;;;;;;;5.30;2.25;;;;;;;3.56;100.00;100481.31;5075411;28;20086;-72
2023/01/14 05:18:26;;;;;;;4.18;2.58;;;;;;;3.55;100.00;100479.69;5058645;28;20505;-70
2023/01/14 05:20:52;;;;;;;3.47;2.03;;;;;;;3.58;100.00;100476.78;5057838;28;20039;-70
2023/01/14 05:23:18;;;;;;;6.82;2.80;;;;;;;3.63;100.00;100486.75;5057935;28;20024;-71
2023/01/14 05:25:45;;;;;;;4.43;2.38;;;;;;;3.63;100.00;100484.72;5057993;28;20020;-71
2023/01/14 05:28:15;;;;;;;5.25;2.67;;;;;;;3.63;100.00;100475.47;5057723;28;20090;-71
2023/01/14 05:30:42;;;;;;;3.75;2.53;;;;;;;3.63;100.00;100478.28;5057948;28;20020;-70
2023/01/14 05:33:09;;;;;;;4.45;2.60;;;;;;;3.59;100.00;100486.06;5057926;28;20150;-70
2023/01/14 05:35:37;;;;;;;6.60;2.75;;;;;;;3.55;100.00;100491.00;5057947;28;20024;-70
2023/01/14 05:38:04;;;;;;;4.70;2.97;;;;;;;3.51;100.00;100501.59;5057572;28;20028;-71
2023/01/14 05:40:32;;;;;;;6.63;2.97;;;;;;;3.47;100.00;100498.06;5057761;28;20104;-71
2023/01/14 05:45:49;;;;;;;8.20;2.90;;;;;;;3.45;100.00;100504.16;5075800;28;20439;-71
2023/01/14 05:48:22;;;;;;;8.30;3.72;;;;;;;3.54;100.00;100514.84;5058352;28;20054;-71
2023/01/14 05:50:52;;;;;;;3.70;2.50;;;;;;;3.67;100.00;100521.41;5040959;28;20385;-71
2023/01/14 05:53:19;;;;;;;8.18;3.33;;;;;;;3.77;100.00;100517.53;5057686;28;20039;-71
2023/01/14 05:55:50;;;;;;;4.82;3.00;;;;;;;3.80;100.00;100507.34;5040871;28;20040;-70
2023/01/14 05:58:17;;;;;;;3.43;2.27;;;;;;;3.83;100.00;100514.94;5075209;28;20029;-70
2023/01/14 06:06:24;;;;;;;7.32;3.00;;;;;;;3.81;100.00;100520.25;5060062;28;20059;-70
2023/01/14 06:09:01;;;;;;;7.85;3.00;;;;;;;3.86;100.00;100522.56;5074571;28;20033;-70
2023/01/14 06:11:28;;;;;;;4.63;2.80;;;;;;;3.96;100.00;100527.97;5075095;28;20024;-69
2023/01/14 06:13:59;;;;;;;6.03;2.83;;;;;;;4.08;100.00;100526.44;5024145;28;20489;-70
2023/01/14 06:16:31;;;;;;;10.93;3.97;;;;;;;4.12;100.00;100520.72;5041259;28;20111;-71
2023/01/14 06:18:57;;;;;;;5.53;2.85;;;;;;;4.25;100.00;100521.59;5057793;28;20052;-70
2023/01/14 06:21:28;;;;;;;5.47;3.38;;;;;;;4.36;100.00;100522.09;5040049;28;20059;-70
2023/01/14 06:24:02;;;;;;;7.57;2.90;;;;;;;4.41;100.00;100516.66;5040264;28;20044;-73
2023/01/14 06:26:29;;;;;;;8.95;3.13;;;;;;;4.47;100.00;100514.09;5074817;28;20455;-72
2023/01/14 06:29:11;;;;;;;4.75;3.15;;;;;;;4.57;100.00;100523.53;5053096;28;20064;-70
2023/01/14 06:31:46;;;;;;;4.05;3.65;;;;;;;4.62;100.00;100525.81;5054435;28;20096;-72
2023/01/14 06:34:12;;;;;;;5.72;2.70;;;;;;;4.67;100.00;100525.28;5054588;28;20039;-72
2023/01/14 06:36:39;;;;;;;5.13;3.13;;;;;;;4.72;100.00;100522.69;5053815;28;20041;-71
2023/01/14 06:39:05;;;;;;;5.45;2.83;;;;;;;4.72;100.00;100536.03;5052316;28;20037;-69
2023/01/14 06:41:32;;;;;;;5.53;2.80;;;;;;;4.72;100.00;100539.69;5036309;28;20061;-70
2023/01/14 06:43:58;;;;;;;5.97;3.50;;;;;;;4.68;100.00;100538.19;5053079;28;20060;-71
2023/01/14 06:46:25;;;;;;;5.13;3.55;;;;;;;4.59;100.00;100541.66;5052854;28;20047;-69
2023/01/14 06:48:51;;;;;;;6.50;3.22;;;;;;;4.47;100.00;100550.88;5053012;28;20363;-70
2023/01/14 06:51:20;;;;;;;8.55;3.42;;;;;;;4.34;100.00;100550.81;5052583;28;20041;-69
2023/01/14 06:53:46;;;;;;;5.57;3.30;;;;;;;4.22;100.00;100545.06;5052949;28;20116;-70
2023/01/14 06:56:21;;;;;;;11.65;4.15;;;;;;;4.18;100.00;100547.19;5054050;28;20120;-67
2023/01/14 06:58:48;;;;;;;9.82;3.92;;;;;;;4.10;100.00;100551.47;5054030;28;20485;-68
2023/01/14 07:01:13;;;;;;;6.13;3.40;;;;;;;4.02;100.00;100556.47;5052574;28;20531;-69
2023/01/14 07:03:40;;;;;;;6.45;3.53;;;;;;;4.01;100.00;100552.88;5052469;28;20025;-70
2023/01/14 07:06:07;;;;;;;6.65;3.45;;;;;;;4.04;100.00;100554.81;5052758;28;20494;-69
2023/01/14 07:08:33;;;;;;;5.05;3.63;;;;;;;3.91;100.00;100539.81;5052704;28;20068;-69
2023/01/14 07:10:59;;;;;;;11.45;3.60;;;;;;;4.12;100.00;100563.91;5053772;28;20444;-69
2023/01/14 07:13:27;;;;;;;8.77;4.10;;;;;;;4.26;100.00;100580.53;5052480;28;20029;-71
2023/01/14 07:15:54;;;;;;;8.23;3.92;;;;;;;4.38;100.00;100570.53;5052304;28;20175;-70
2023/01/14 07:18:20;;;;;;;7.80;3.92;;;;;;;4.46;100.00;100564.22;5053674;28;20036;-71
2023/01/14 07:20:46;;;;;;;4.88;3.83;;;;;;;4.40;100.00;100568.06;5051809;28;20021;-71
2023/01/14 07:23:13;;;;;;;8.77;4.35;;;;;;;4.32;100.00;100564.59;5051279;28;20052;-70
2023/01/14 07:25:39;;;;;;;4.88;3.85;;;;;;;4.27;100.00;100570.78;5053603;28;20114;-69
2023/01/14 07:28:06;;;;;;;5.90;3.72;;;;;;;4.18;100.00;100575.47;5035481;28;20080;-70
2023/01/14 07:30:32;;;;;;;8.13;3.83;;;;;;;4.07;100.00;100582.19;5052216;28;20028;-70
2023/01/14 07:32:59;;;;;;;9.57;4.25;;;;;;;4.08;100.00;100583.00;5052188;28;20478;-70
2023/01/14 07:35:40;;;;;;;8.20;3.78;;;;;;;4.18;100.00;100593.25;5056111;28;20053;-69
2023/01/14 07:38:08;;;;;;;8.65;4.50;;;;;;;4.29;100.00;100590.16;5070565;28;20033;-71
2023/01/14 07:40:34;;;;;;;7.50;4.65;;;;;;;4.41;100.00;100586.63;5052084;28;20056;-71
2023/01/14 07:43:00;;;;;;;8.07;4.00;;;;;;;4.42;100.00;100576.88;5055336;28;20059;-70
2023/01/14 07:45:26;;;;;;;4.53;3.83;;;;;;;4.69;100.00;100587.91;5055763;28;20062;-69
2023/01/14 07:47:52;;;;;;;13.63;4.18;;;;;;;4.82;100.00;100592.38;5056674;28;20029;-69
2023/01/14 07:50:18;;;;;;;9.00;3.95;;;;;;;4.97;100.00;100589.13;5053118;28;20033;-72
2023/01/14 07:52:43;;;;;;;9.18;4.60;;;;;;;5.07;100.00;100593.69;5047524;28;20048;-69
2023/01/14 07:55:09;;;;;;;8.07;4.30;;;;;;;5.11;100.00;100588.72;5063622;28;20028;-72
2023/01/14 07:57:34;;;;;;;9.15;3.88;;;;;;;5.18;100.00;100586.50;5071329;28;20044;-72
2023/01/14 08:00:00;;;;;;;7.45;4.18;;;;;;;5.29;100.00;100589.81;5069747;28;20396;-71
2023/01/14 08:02:25;;;;;;;10.32;4.35;;;;;;;5.38;100.00;100587.13;5071173;28;20020;-70
2023/01/14 08:04:50;;;;;;;10.70;4.00;;;;;;;5.45;100.00;100588.91;5070803;28;20027;-72
2023/01/14 08:07:16;;;;;;;10.90;4.57;;;;;;;5.59;100.00;100587.72;5070683;28;20020;-72
2023/01/14 08:09:41;;;;;;;8.20;3.90;;;;;;;5.74;100.00;100592.50;5073202;28;20073;-69
2023/01/14 08:12:06;;;;;;;8.18;3.83;;;;;;;5.75;100.00;100601.78;5071979;28;20021;-71
2023/01/14 08:14:32;;;;;;;10.93;3.53;;;;;;;5.66;100.00;100596.78;5071790;28;20048;-72
2023/01/14 08:17:02;;;;;;;8.18;3.80;;;;;;;5.71;100.00;100606.75;5072994;28;20047;-72
2023/01/14 08:19:27;;;;;;;7.30;3.58;;;;;;;5.79;100.00;100608.16;5073200;28;20029;-71
2023/01/14 08:21:52;;;;;;;7.10;3.35;;;;;;;5.90;100.00;100613.47;5073177;28;20051;-68
2023/01/14 08:24:18;;;;;;;7.72;5.10;;;;;;;5.92;100.00;100606.09;5073234;28;20082;-70
2023/01/14 08:26:43;;;;;;;7.97;3.85;;;;;;;6.05;100.00;100606.88;5072975;28;20028;-69
2023/01/14 08:29:09;;;;;;;12.00;4.05;;;;;;;6.11;100.00;100609.97;5054877;28;20059;-71
2023/01/14 08:31:35;;;;;;;10.63;4.68;;;;;;;6.07;100.00;100592.25;5074517;28;20023;-71
2023/01/14 08:34:01;;;;;;;11.07;4.82;;;;;;;6.11;100.00;100607.13;5076299;28;20044;-73
2023/01/14 08:36:27;;;;;;;8.13;3.97;;;;;;;6.08;100.00;100602.38;5076684;28;20417;-68
2023/01/14 08:38:53;;;;;;;8.35;4.38;;;;;;;6.09;100.00;100599.06;5075120;28;20036;-72
2023/01/14 08:41:21;;;;;;;7.07;3.75;;;;;;;6.07;100.00;100600.78;5075408;28;20111;-72
2023/01/14 08:43:49;;;;;;;9.80;4.32;;;;;;;6.24;100.00;100602.22;5075543;28;20514;-74
2023/01/14 08:46:16;;;;;;;9.18;4.70;;;;;;;6.49;100.00;100610.72;5058900;28;20037;-73
2023/01/14 08:48:44;;;;;;;9.70;4.18;;;;;;;6.79;100.00;100600.75;5075311;28;20115;-71
2023/01/14 08:51:20;;;;;;;4.85;3.38;;;;;;;7.08;100.00;100598.47;5076711;28;20059;-72
2023/01/14 08:53:48;;;;;;;5.78;3.13;;;;;;;7.39;100.00;100598.56;5077080;28;20112;-72
2023/01/14 08:56:16;;;;;;;6.07;3.42;;;;;;;7.61;100.00;100595.69;5076731;28;20032;-71
2023/01/14 08:58:56;;;;;;;10.85;3.78;;;;;;;7.72;100.00;100592.44;5075298;28;20027;-72
2023/01/14 09:01:22;;;;;;;5.82;3.22;;;;;;;7.86;100.00;100597.56;5076298;28;20033;-70
2023/01/14 09:03:48;;;;;;;6.43;3.10;;;;;;;7.96;100.00;100594.25;5076089;28;20482;-73
2023/01/14 09:06:15;;;;;;;3.95;2.50;;;;;;;7.98;100.00;100597.44;5058144;28;20036;-74
2023/01/14 09:17:06;;;;;;;8.82;3.10;;;;;;;7.74;100.00;100610.59;5075917;28;20081;-75
2023/01/14 09:19:55;;;;;;;5.75;2.70;;;;;;;7.64;100.00;100611.03;5058529;28;20032;-74
2023/01/14 09:22:27;;;;;;;7.25;2.70;;;;;;;7.44;100.00;100602.84;5074727;28;20024;-74
2023/01/14 09:24:54;;;;;;;4.05;2.38;;;;;;;7.42;100.00;100597.63;5074467;28;20073;-75
2023/01/14 09:27:21;;;;;;;5.75;2.33;;;;;;;7.44;100.00;100608.53;5079533;28;20044;-75
2023/01/14 09:29:46;;;;;;;6.10;2.72;;;;;;;7.50;100.00;100618.84;5095960;28;20106;-74
2023/01/14 09:32:17;;;;;;;6.55;2.45;;;;;;;7.64;100.00;100611.03;5078196;28;20103;-74
2023/01/14 09:34:48;;;;;;;6.60;2.65;;;;;;;7.90;100.00;100621.75;5096049;28;20071;-74
2023/01/14 09:37:15;;;;;;;3.90;2.22;;;;;;;8.13;100.00;100613.94;5044242;28;20024;-75
2023/01/14 09:39:41;;;;;;;6.43;2.42;;;;;;;8.28;100.00;100627.16;5059216;28;20111;-70
2023/01/14 09:42:16;;;;;;;4.78;2.22;;;;;;;8.55;100.00;100617.13;5093445;28;20031;-72
2023/01/14 09:44:42;;;;;;;5.15;1.90;;;;;;;8.85;100.00;100615.44;5095061;28;20032;-73
2023/01/14 09:47:10;;;;;;;4.55;2.47;;;;;;;9.09;100.00;100611.47;5056737;28;20028;-71
2023/01/14 09:49:36;;;;;;;4.97;2.60;;;;;;;9.12;100.00;100604.81;5074561;28;20028;-74
2023/01/14 09:52:14;;;;;;;5.63;2.13;;;;;;;9.06;100.00;100601.00;5091315;28;20015;-72
2023/01/14 09:54:52;;;;;;;7.95;2.35;;;;;;;9.05;100.00;100592.97;5084868;28;20481;-72
2023/01/14 09:57:43;;;;;;;4.22;2.00;;;;;;;9.00;100.00;100588.66;5086447;28;20396;-74
2023/01/14 10:00:32;;;;;;;6.63;2.33;;;;;;;9.09;100.00;100599.28;5086698;28;20119;-74
2023/01/14 10:03:30;;;;;;;6.25;2.50;;;;;;;9.19;100.00;100595.16;5066977;28;20027;-75
2023/01/14 10:06:01;;;;;;;7.88;2.75;;;;;;;9.34;100.00;100601.00;5065173;28;20020;-74
2023/01/14 10:08:31;;;;;;;3.30;2.05;;;;;;;9.55;100.00;100605.72;5067757;28;20102;-75
2023/01/14 10:10:57;;;;;;;4.13;2.08;;;;;;;9.58;100.00;100597.00;5065206;28;20020;-72
2023/01/14 10:13:36;;;;;;;4.90;2.28;;;;;;;9.63;100.00;100607.78;5081921;28;20496;-73
2023/01/14 10:16:17;;;;;;;6.85;1.88;;;;;;;9.65;100.00;100601.56;5041383;28;20027;-73
2023/01/14 10:18:53;;;;;;;5.93;2.67;;;;;;;9.64;100.00;100602.84;5044477;28;20027;-74
2023/01/14 10:21:34;;;;;;;4.88;2.13;;;;;;;9.75;100.00;100600.31;5068074;28;20059;-73
2023/01/14 10:24:00;;;;;;;3.53;2.35;;;;;;;9.68;100.00;100586.34;5071736;28;20035;-73
2023/01/14 10:26:32;;;;;;;9.23;2.75;;;;;;;9.53;100.00;100596.84;5087361;28;20040;-74
2023/01/14 10:29:04;;;;;;;10.15;2.58;;;;;;;9.19;100.00;100584.56;5080263;28;20559;-72
2023/01/14 10:31:39;;;;;;;6.70;2.22;;;;;;;8.83;100.00;100576.00;5055740;28;20024;-72
2023/01/14 10:34:05;;;;;;;5.40;2.40;;;;;;;8.55;100.00;100578.03;5091568;28;20036;-74
2023/01/14 10:36:32;;;;;;;4.28;1.92;;;;;;;8.32;100.00;100570.84;5077023;28;20039;-75
2023/01/14 10:39:00;;;;;;;5.43;2.65;;;;;;;8.10;100.00;100561.59;5094527;28;20385;-74
2023/01/14 10:44:22;;;;;;;7.30;2.67;;;;;;;7.95;100.00;100566.28;5066902;28;20051;-75
2023/01/14 10:46:51;;;;;;;4.63;2.40;;;;;;;7.80;100.00;100551.84;5056353;28;20032;-74
2023/01/14 10:49:24;;;;;;;5.88;2.58;;;;;;;7.87;100.00;100562.94;5056610;28;20081;-78
2023/01/14 10:51:51;;;;;;;8.02;2.92;;;;;;;7.83;100.00;100556.59;5040805;28;20469;-83
2023/01/14 10:54:20;;;;;;;9.23;2.90;;;;;;;7.74;100.00;100545.19;5074391;28;20103;-82
2023/01/14 10:56:55;;;;;;;6.90;2.60;;;;;;;7.71;100.00;100554.66;5040052;28;20489;-82
2023/01/14 10:59:43;;;;;;;8.00;2.80;;;;;;;7.71;100.00;100553.88;5056751;28;20024;-84
2023/01/14 11:02:34;;;;;;;8.68;3.00;;;;;;;7.71;100.00;100554.66;5056518;28;20047;-79
2023/01/14 11:05:02;;;;;;;15.27;3.47;;;;;;;7.70;100.00;100555.13;5084764;28;20028;-79
2023/01/14 11:07:38;;;;;;;20.92;3.60;;;;;;;7.76;100.00;100556.91;5075779;28;20105;-77
2023/01/14 11:10:16;;;;;;;7.25;2.15;;;;;;;7.79;100.00;100546.63;5062364;28;20032;-80
2023/01/14 11:12:41;;;;;;;9.27;2.80;;;;;;;7.87;100.00;100542.22;5090804;28;20031;-77
2023/01/14 11:15:34;;;;;;;10.30;2.72;;;;;;;7.88;100.00;100535.28;5048746;28;20036;-77
2023/01/14 11:18:20;;;;;;;8.80;3.05;;;;;;;7.81;100.00;100539.22;5094253;28;20028;-78
2023/01/14 11:21:24;;;;;;;17.60;3.42;;;;;;;7.77;100.00;100538.56;5094387;28;20039;-78
2023/01/14 11:23:55;;;;;;;10.23;2.30;;;;;;;7.81;100.00;100527.06;5064555;28;20016;-77
2023/01/14 11:26:41;;;;;;;4.75;2.65;;;;;;;7.87;100.00;100522.31;5074347;28;20103;-75
2023/01/14 11:29:21;;;;;;;5.65;2.60;;;;;;;7.84;100.00;100541.13;5055848;28;20067;-77
2023/01/14 11:31:50;;;;;;;9.27;2.90;;;;;;;7.81;100.00;100532.75;5082126;28;20095;-77
2023/01/14 11:34:42;;;;;;;5.88;2.33;;;;;;;7.90;100.00;100524.22;5078196;28;20051;-77
2023/01/14 11:37:23;;;;;;;6.88;2.47;;;;;;;8.04;100.00;100525.69;5058288;28;20032;-77
2023/01/14 11:39:58;;;;;;;8.27;2.65;;;;;;;8.18;100.00;100520.22;5083300;28;20110;-79
2023/01/14 11:42:27;;;;;;;6.00;2.95;;;;;;;8.23;100.00;100525.28;5067978;28;20028;-78
2023/01/14 11:45:01;;;;;;;6.25;2.40;;;;;;;8.27;100.00;100520.22;5094185;28;20407;-79
2023/01/14 11:47:30;;;;;;;4.07;2.50;;;;;;;8.30;100.00;100516.47;5073997;28;20035;-77
2023/01/14 11:50:42;;;;;;;10.50;2.50;;;;;;;8.20;100.00;100502.69;5072849;28;20032;-78
2023/01/14 11:53:18;;;;;;;4.18;2.15;;;;;;;8.12;100.00;100505.00;5078494;28;20039;-79
2023/01/14 11:55:50;;;;;;;14.38;3.20;;;;;;;8.10;100.00;100496.16;5057468;28;20020;-80
2023/01/14 11:58:25;;;;;;;8.60;2.78;;;;;;;8.20;100.00;100497.00;5076873;28;20024;-85
2023/01/14 12:01:01;;;;;;;7.45;2.55;;;;;;;8.33;100.00;100486.25;5059870;28;20024;-78
2023/01/14 12:03:47;;;;;;;5.10;1.85;;;;;;;8.49;100.00;100488.00;5076410;28;20032;-84
2023/01/14 12:06:23;;;;;;;5.40;2.60;;;;;;;8.59;100.00;100489.59;5096225;28;20031;-82
2023/01/14 12:09:03;;;;;;;9.38;2.45;;;;;;;8.50;100.00;100483.88;5080892;28;20024;-77
2023/01/14 12:11:51;;;;;;;9.30;2.92;;;;;;;8.54;100.00;100488.16;5096977;28;20028;-79